Wetterdaten: Montag, 24.02.2014
Datum Zeit Temperatur Luftfeuchte Luftdruck Regen Wind Richtung Richtung Taupunkt Windchill Windben
24.02.2014 00:00 -4,1 C 85 % 1019,5 hPa 0,0 l/m 0,5 km/h (0 Bft) W 270 -6,2 C -4,7 C 0,0 km/h (0 Bft)
24.02.2014 00:05 -4,2 C 85 % 1019,5 hPa 0,0 l/m 0,2 km/h (0 Bft) NO 45 -6,3 C -4,8 C 0,0 km/h (0 Bft)
24.02.2014 00:10 -4,3 C 85 % 1019,4 hPa 0,0 l/m 0,3 km/h (0 Bft) N-NW 337 -6,4 C -4,7 C 0,0 km/h (0 Bft)
24.02.2014 00:15 -4,4 C 85 % 1019,4 hPa 0,0 l/m 0,2 km/h (0 Bft) NO 45 -6,5 C -4,8 C 0,0 km/h (0 Bft)
24.02.2014 00:20 -4,5 C 85 % 1019,4 hPa 0,0 l/m 0,0 km/h (0 Bft) NO 45 -6,6 C -4,9 C 0,0 km/h (0 Bft)
24.02.2014 00:25 -4,6 C 85 % 1019,4 hPa 0,0 l/m 0,2 km/h (0 Bft) N-NW 337 -6,7 C -5,0 C 2,6 km/h (1 Bft)
24.02.2014 00:30 -4,7 C 85 % 1019,2 hPa 0,0 l/m 1,0 km/h (0 Bft) O 90 -6,8 C -4,9 C 2,9 km/h (1 Bft)
24.02.2014 00:35 -4,3 C 86 % 1019,2 hPa 0,0 l/m 1,0 km/h (0 Bft) N-NW 337 -6,3 C -4,9 C 0,0 km/h (0 Bft)
24.02.2014 00:40 -4,6 C 85 % 1019,2 hPa 0,0 l/m 0,3 km/h (0 Bft) NO 45 -6,7 C -4,9 C 0,0 km/h (0 Bft)
24.02.2014 00:45 -4,7 C 85 % 1019,2 hPa 0,0 l/m 0,0 km/h (0 Bft) W-NW 292 -6,8 C -5,0 C 0,0 km/h (0 Bft)
24.02.2014 00:50 -4,3 C 86 % 1019,2 hPa 0,0 l/m 0,0 km/h (0 Bft) O-SO 112 -6,3 C -5,1 C 0,0 km/h (0 Bft)
24.02.2014 00:55 -4,3 C 86 % 1019,2 hPa 0,0 l/m 0,0 km/h (0 Bft) NO 45 -6,3 C -5,0 C 0,0 km/h (0 Bft)
24.02.2014 01:00 -4,8 C 86 % 1019,2 hPa 0,0 l/m 0,0 km/h (0 Bft) O 90 -6,8 C -5,1 C 0,0 km/h (0 Bft)
24.02.2014 01:05 -4,8 C 86 % 1019,2 hPa 0,0 l/m 0,0 km/h (0 Bft) O-NO 67 -6,8 C -5,3 C 0,0 km/h (0 Bft)
24.02.2014 01:10 -4,8 C 86 % 1018,9 hPa 0,0 l/m 0,0 km/h (0 Bft) SO 135 -6,8 C -5,4 C 0,0 km/h (0 Bft)
24.02.2014 01:15 -4,8 C 86 % 1018,9 hPa 0,0 l/m 0,0 km/h (0 Bft) SO 135 -6,8 C -5,6 C 0,0 km/h (0 Bft)
24.02.2014 01:20 -4,9 C 86 % 1018,9 hPa 0,0 l/m 0,0 km/h (0 Bft) N-NW 337 -6,9 C -5,7 C 0,0 km/h (0 Bft)
24.02.2014 01:25 -5,1 C 86 % 1018,9 hPa 0,0 l/m 0,0 km/h (0 Bft) N-NW 337 -7,1 C -5,6 C 0,0 km/h (0 Bft)
24.02.2014 01:30 -5,0 C 86 % 1018,9 hPa 0,0 l/m 0,0 km/h (0 Bft) SO 135 -7,0 C -5,6 C 0,0 km/h (0 Bft)
24.02.2014 01:35 -4,6 C 86 % 1018,9 hPa 0,0 l/m 0,3 km/h (0 Bft) SO 135 -6,6 C -5,6 C 0,0 km/h (0 Bft)
24.02.2014 01:40 -5,0 C 86 % 1018,9 hPa 0,0 l/m 0,3 km/h (0 Bft) N-NO 22 -7,0 C -5,6 C 0,0 km/h (0 Bft)
24.02.2014 01:45 -5,0 C 86 % 1018,9 hPa 0,0 l/m 0,0 km/h (0 Bft) N-NO 22 -7,0 C -5,6 C 0,0 km/h (0 Bft)
24.02.2014 01:50 -5,2 C 86 % 1018,6 hPa 0,0 l/m 0,0 km/h (0 Bft) N 360 -7,2 C -5,7 C 0,0 km/h (0 Bft)
24.02.2014 01:55 -5,0 C 86 % 1018,6 hPa 0,0 l/m 0,0 km/h (0 Bft) N 360 -7,0 C -5,7 C 0,0 km/h (0 Bft)
24.02.2014 02:00 -4,8 C 86 % 1018,6 hPa 0,0 l/m 0,0 km/h (0 Bft) SO 135 -6,8 C -5,6 C 0,0 km/h (0 Bft)
24.02.2014 02:05 -4,3 C 86 % 1018,6 hPa 0,0 l/m 0,3 km/h (0 Bft) W-NW 292 -6,3 C -5,4 C 3,4 km/h (1 Bft)
24.02.2014 02:10 -5,0 C 86 % 1018,4 hPa 0,0 l/m 0,6 km/h (0 Bft) N 360 -7,0 C -5,4 C 0,0 km/h (0 Bft)
24.02.2014 02:15 -5,4 C 86 % 1018,4 hPa 0,0 l/m 0,6 km/h (0 Bft) N 360 -7,4 C -5,6 C 0,0 km/h (0 Bft)
24.02.2014 02:20 -5,6 C 85 % 1018,4 hPa 0,0 l/m 0,2 km/h (0 Bft) W-NW 292 -7,7 C -5,7 C 0,0 km/h (0 Bft)
24.02.2014 02:25 -5,4 C 86 % 1018,4 hPa 0,0 l/m 0,2 km/h (0 Bft) S 180 -7,4 C -5,9 C 0,0 km/h (0 Bft)
24.02.2014 02:28 -5,6 C 86 % 1018,1 hPa 0,0 l/m 0,2 km/h (0 Bft) S 180 -7,6 C -5,9 C 0,0 km/h (0 Bft)
24.02.2014 02:30 -5,6 C 86 % 1018,1 hPa 0,0 l/m 0,2 km/h (0 Bft) S 180 -7,6 C -5,9 C 0,0 km/h (0 Bft)
24.02.2014 02:35 -5,8 C 86 % 1018,1 hPa 0,0 l/m 0,2 km/h (0 Bft) O-SO 112 -7,8 C -6,0 C 0,0 km/h (0 Bft)
24.02.2014 02:40 -5,5 C 86 % 1018,1 hPa 0,0 l/m 0,0 km/h (0 Bft) O-SO 112 -7,5 C -6,3 C 0,0 km/h (0 Bft)
24.02.2014 02:45 -5,3 C 86 % 1018,1 hPa 0,0 l/m 0,0 km/h (0 Bft) N-NW 337 -7,3 C -6,1 C 0,0 km/h (0 Bft)
24.02.2014 02:50 -5,2 C 86 % 1017,8 hPa 0,0 l/m 0,3 km/h (0 Bft) S 180 -7,2 C -5,9 C 4,2 km/h (1 Bft)
24.02.2014 02:55 -5,4 C 86 % 1017,8 hPa 0,0 l/m 1,1 km/h (1 Bft) W-SW 247 -7,4 C -5,7 C 0,0 km/h (0 Bft)
24.02.2014 03:00 -5,4 C 87 % 1017,8 hPa 0,0 l/m 1,8 km/h (1 Bft) N-NO 22 -7,2 C -5,9 C 3,5 km/h (1 Bft)
24.02.2014 03:05 -5,2 C 87 % 1017,8 hPa 0,0 l/m 1,3 km/h (1 Bft) NW 315 -7,0 C -5,9 C 0,0 km/h (0 Bft)
24.02.2014 03:10 -5,5 C 87 % 1017,5 hPa 0,0 l/m 1,6 km/h (1 Bft) O 90 -7,3 C -5,9 C 5,1 km/h (1 Bft)
24.02.2014 03:15 -5,6 C 87 % 1017,5 hPa 0,0 l/m 1,3 km/h (1 Bft) N-NO 22 -7,4 C -5,9 C 0,0 km/h (0 Bft)
24.02.2014 03:20 -5,9 C 87 % 1017,5 hPa 0,0 l/m 0,5 km/h (0 Bft) N-NO 22 -7,7 C -6,0 C 0,0 km/h (0 Bft)
24.02.2014 03:25 -6,1 C 86 % 1017,5 hPa 0,0 l/m 0,5 km/h (0 Bft) NO 45 -8,0 C -6,4 C 0,0 km/h (0 Bft)
24.02.2014 03:30 -6,0 C 86 % 1017,6 hPa 0,0 l/m 0,3 km/h (0 Bft) O 90 -8,0 C -6,5 C 0,0 km/h (0 Bft)
24.02.2014 03:35 -5,5 C 86 % 1017,6 hPa 0,0 l/m 0,6 km/h (0 Bft) O-SO 112 -7,5 C -6,6 C 2,6 km/h (1 Bft)
24.02.2014 03:40 -5,8 C 87 % 1017,6 hPa 0,0 l/m 0,8 km/h (0 Bft) NW 315 -7,6 C -6,3 C 0,0 km/h (0 Bft)
24.02.2014 03:45 -5,9 C 86 % 1017,6 hPa 0,0 l/m 0,3 km/h (0 Bft) W 270 -7,9 C -6,4 C 0,0 km/h (0 Bft)
24.02.2014 03:50 -6,0 C 86 % 1017,0 hPa 0,0 l/m 0,3 km/h (0 Bft) NO 45 -8,0 C -6,6 C 0,0 km/h (0 Bft)
24.02.2014 03:55 -6,2 C 86 % 1017,0 hPa 0,0 l/m 0,3 km/h (0 Bft) NO 45 -8,1 C -6,7 C 0,0 km/h (0 Bft)
24.02.2014 04:00 -6,3 C 86 % 1017,0 hPa 0,0 l/m 0,5 km/h (0 Bft) S-SO 157 -8,2 C -6,7 C 3,9 km/h (1 Bft)
24.02.2014 04:05 -6,3 C 86 % 1017,0 hPa 0,0 l/m 1,0 km/h (0 Bft) S-SO 157 -8,2 C -6,5 C 0,0 km/h (0 Bft)
24.02.2014 04:10 -6,4 C 86 % 1016,8 hPa 0,0 l/m 1,0 km/h (0 Bft) NO 45 -8,3 C -6,8 C 1,6 km/h (1 Bft)
24.02.2014 04:15 -6,0 C 86 % 1016,8 hPa 0,0 l/m 0,6 km/h (0 Bft) N 360 -8,0 C -6,9 C 2,9 km/h (1 Bft)
24.02.2014 04:20 -6,2 C 86 % 1016,8 hPa 0,0 l/m 0,8 km/h (0 Bft) N-NW 337 -8,1 C -7,0 C 0,0 km/h (0 Bft)
24.02.2014 04:25 -6,5 C 86 % 1016,8 hPa 0,0 l/m 0,6 km/h (0 Bft) N-NO 22 -8,4 C -6,9 C 0,0 km/h (0 Bft)
24.02.2014 04:30 -6,6 C 86 % 1016,7 hPa 0,0 l/m 0,3 km/h (0 Bft) NO 45 -8,5 C -7,1 C 2,1 km/h (1 Bft)
24.02.2014 04:35 -6,5 C 86 % 1016,7 hPa 0,0 l/m 0,3 km/h (0 Bft) N-NO 22 -8,4 C -7,2 C 0,0 km/h (0 Bft)
24.02.2014 04:40 -6,4 C 86 % 1016,7 hPa 0,0 l/m 0,3 km/h (0 Bft) W-NW 292 -8,3 C -7,1 C 0,0 km/h (0 Bft)
24.02.2014 04:45 -6,5 C 86 % 1016,7 hPa 0,0 l/m 0,2 km/h (0 Bft) W-NW 292 -8,4 C -7,0 C 0,0 km/h (0 Bft)
24.02.2014 04:50 -6,8 C 86 % 1016,5 hPa 0,0 l/m 0,8 km/h (0 Bft) S 180 -8,7 C -7,3 C 2,7 km/h (1 Bft)
24.02.2014 04:55 -6,4 C 86 % 1016,5 hPa 0,0 l/m 0,8 km/h (0 Bft) N 360 -8,3 C -7,2 C 0,0 km/h (0 Bft)
24.02.2014 05:00 -6,8 C 86 % 1016,5 hPa 0,0 l/m 0,8 km/h (0 Bft) W-NW 292 -8,7 C -7,3 C 1,8 km/h (1 Bft)
24.02.2014 05:05 -6,6 C 86 % 1016,5 hPa 0,0 l/m 0,6 km/h (0 Bft) W-NW 292 -8,5 C -7,3 C 1,6 km/h (1 Bft)
24.02.2014 05:10 -7,0 C 86 % 1016,5 hPa 0,0 l/m 0,5 km/h (0 Bft) N-NW 337 -8,9 C -7,3 C 0,0 km/h (0 Bft)
24.02.2014 05:15 -6,9 C 86 % 1016,5 hPa 0,0 l/m 0,3 km/h (0 Bft) W-NW 292 -8,8 C -7,4 C 0,0 km/h (0 Bft)
24.02.2014 05:20 -6,9 C 86 % 1016,5 hPa 0,0 l/m 0,2 km/h (0 Bft) W-NW 292 -8,8 C -7,5 C 0,0 km/h (0 Bft)
24.02.2014 05:25 -7,0 C 86 % 1016,5 hPa 0,0 l/m 0,0 km/h (0 Bft) W-NW 292 -8,9 C -7,6 C 0,0 km/h (0 Bft)
24.02.2014 05:30 -6,8 C 86 % 1016,4 hPa 0,0 l/m 1,0 km/h (0 Bft) N 360 -8,7 C -7,6 C 3,9 km/h (1 Bft)
24.02.2014 05:35 -6,6 C 87 % 1016,4 hPa 0,0 l/m 2,4 km/h (1 Bft) N-NO 22 -8,4 C -7,8 C 3,1 km/h (1 Bft)
24.02.2014 05:40 -6,5 C 87 % 1016,4 hPa 0,0 l/m 2,1 km/h (1 Bft) S-SW 202 -8,3 C -7,1 C 1,8 km/h (1 Bft)
24.02.2014 05:45 -6,6 C 87 % 1016,4 hPa 0,0 l/m 0,6 km/h (0 Bft) S-SW 202 -8,4 C -6,9 C 0,0 km/h (0 Bft)
24.02.2014 05:50 -6,2 C 87 % 1016,5 hPa 0,0 l/m 0,5 km/h (0 Bft) NO 45 -8,0 C -7,0 C 0,0 km/h (0 Bft)
24.02.2014 05:55 -6,7 C 87 % 1016,5 hPa 0,0 l/m 0,8 km/h (0 Bft) N 360 -8,5 C -6,9 C 1,9 km/h (1 Bft)
24.02.2014 06:00 -6,3 C 87 % 1016,5 hPa 0,0 l/m 1,0 km/h (0 Bft) N 360 -8,1 C -6,9 C 0,0 km/h (0 Bft)
24.02.2014 06:05 -5,5 C 87 % 1016,5 hPa 0,0 l/m 1,6 km/h (1 Bft) O 90 -7,3 C -6,9 C 2,9 km/h (1 Bft)
24.02.2014 06:10 -6,0 C 87 % 1016,4 hPa 0,0 l/m 1,3 km/h (1 Bft) NO 45 -7,8 C -6,6 C 0,0 km/h (0 Bft)
24.02.2014 06:15 -6,7 C 87 % 1016,4 hPa 0,0 l/m 0,8 km/h (0 Bft) NO 45 -8,5 C -6,8 C 0,0 km/h (0 Bft)
24.02.2014 06:20 -6,7 C 86 % 1016,4 hPa 0,0 l/m 0,2 km/h (0 Bft) O-SO 112 -8,6 C -7,0 C 0,0 km/h (0 Bft)
24.02.2014 06:25 -7,0 C 86 % 1016,4 hPa 0,0 l/m 0,2 km/h (0 Bft) SO 135 -8,9 C -7,1 C 0,0 km/h (0 Bft)
24.02.2014 06:30 -7,1 C 86 % 1016,4 hPa 0,0 l/m 0,0 km/h (0 Bft) N-NO 22 -9,0 C -7,3 C 0,0 km/h (0 Bft)
24.02.2014 06:35 -7,3 C 86 % 1016,4 hPa 0,0 l/m 0,0 km/h (0 Bft) N-NO 22 -9,2 C -7,5 C 0,0 km/h (0 Bft)
24.02.2014 06:40 -7,2 C 86 % 1016,4 hPa 0,0 l/m 0,0 km/h (0 Bft) N-NO 22 -9,1 C -7,8 C 0,0 km/h (0 Bft)
24.02.2014 06:45 -7,4 C 86 % 1016,4 hPa 0,0 l/m 0,0 km/h (0 Bft) N-NO 22 -9,3 C -7,9 C 0,0 km/h (0 Bft)
24.02.2014 06:50 -7,0 C 86 % 1016,2 hPa 0,0 l/m 0,2 km/h (0 Bft) O-NO 67 -8,9 C -7,9 C 0,0 km/h (0 Bft)
24.02.2014 06:55 -6,9 C 86 % 1016,2 hPa 0,0 l/m 0,2 km/h (0 Bft) S-SW 202 -8,8 C -7,7 C 0,0 km/h (0 Bft)
24.02.2014 07:00 -7,2 C 86 % 1016,2 hPa 0,0 l/m 0,3 km/h (0 Bft) N-NO 22 -9,1 C -7,5 C 0,0 km/h (0 Bft)
24.02.2014 07:05 -7,1 C 86 % 1016,2 hPa 0,0 l/m 0,3 km/h (0 Bft) N-NO 22 -9,0 C -7,5 C 0,0 km/h (0 Bft)
24.02.2014 07:10 -7,0 C 86 % 1016,2 hPa 0,0 l/m 0,0 km/h (0 Bft) O 90 -8,9 C -7,3 C 0,0 km/h (0 Bft)
24.02.2014 07:15 -7,1 C 86 % 1016,2 hPa 0,0 l/m 0,0 km/h (0 Bft) O-SO 112 -9,0 C -7,3 C 0,0 km/h (0 Bft)
24.02.2014 07:20 -7,1 C 86 % 1016,2 hPa 0,0 l/m 0,2 km/h (0 Bft) N-NO 22 -9,0 C -7,3 C 1,6 km/h (1 Bft)
24.02.2014 07:25 -7,2 C 86 % 1016,2 hPa 0,0 l/m 0,2 km/h (0 Bft) N 360 -9,1 C -7,3 C 0,0 km/h (0 Bft)
24.02.2014 07:28 -7,1 C 86 % 1016,1 hPa 0,0 l/m 0,0 km/h (0 Bft) N-NW 337 -9,0 C -7,5 C 0,0 km/h (0 Bft)
24.02.2014 07:30 -7,1 C 86 % 1016,1 hPa 0,0 l/m 0,0 km/h (0 Bft) N-NW 337 -9,0 C -7,5 C 0,0 km/h (0 Bft)
24.02.2014 07:35 -6,7 C 86 % 1016,1 hPa 0,0 l/m 0,0 km/h (0 Bft) N-NW 337 -8,6 C -7,3 C 0,0 km/h (0 Bft)
24.02.2014 07:40 -6,7 C 87 % 1016,1 hPa 0,0 l/m 0,2 km/h (0 Bft) N-NW 337 -8,5 C -7,2 C 0,0 km/h (0 Bft)
24.02.2014 07:45 -6,5 C 87 % 1016,1 hPa 0,0 l/m 0,3 km/h (0 Bft) N-NO 22 -8,3 C -7,3 C 0,0 km/h (0 Bft)
24.02.2014 07:50 -6,5 C 87 % 1016,5 hPa 0,0 l/m 0,3 km/h (0 Bft) N-NW 337 -8,3 C -6,9 C 0,0 km/h (0 Bft)
24.02.2014 07:55 -6,5 C 87 % 1016,5 hPa 0,0 l/m 0,3 km/h (0 Bft) O-NO 67 -8,3 C -6,9 C 0,0 km/h (0 Bft)
24.02.2014 08:00 -6,2 C 87 % 1016,5 hPa 0,0 l/m 0,6 km/h (0 Bft) S 180 -8,0 C -6,9 C 2,7 km/h (1 Bft)
24.02.2014 08:05 -6,1 C 87 % 1016,5 hPa 0,0 l/m 0,8 km/h (0 Bft) S 180 -7,9 C -6,5 C 0,0 km/h (0 Bft)
24.02.2014 08:10 -6,1 C 87 % 1016,6 hPa 0,0 l/m 0,5 km/h (0 Bft) W-NW 292 -7,9 C -6,4 C 0,0 km/h (0 Bft)
24.02.2014 08:15 -6,0 C 87 % 1016,6 hPa 0,0 l/m 0,2 km/h (0 Bft) W-NW 292 -7,8 C -6,4 C 0,0 km/h (0 Bft)
24.02.2014 08:20 -6,1 C 87 % 1016,6 hPa 0,0 l/m 0,2 km/h (0 Bft) W-NW 292 -7,9 C -6,3 C 0,0 km/h (0 Bft)
24.02.2014 08:25 -5,9 C 87 % 1016,6 hPa 0,0 l/m 0,0 km/h (0 Bft) W-NW 292 -7,7 C -6,2 C 0,0 km/h (0 Bft)
24.02.2014 08:30 -5,6 C 87 % 1016,7 hPa 0,0 l/m 0,2 km/h (0 Bft) N 360 -7,4 C -6,0 C 0,0 km/h (0 Bft)
24.02.2014 08:35 -5,6 C 87 % 1016,7 hPa 0,0 l/m 0,2 km/h (0 Bft) N-NW 337 -7,4 C -5,7 C 0,0 km/h (0 Bft)
24.02.2014 08:40 -4,9 C 87 % 1016,7 hPa 0,0 l/m 0,8 km/h (0 Bft) NO 45 -6,7 C -5,5 C 3,2 km/h (1 Bft)
24.02.2014 08:45 -4,6 C 87 % 1016,7 hPa 0,0 l/m 1,0 km/h (0 Bft) NO 45 -6,4 C -4,8 C 0,0 km/h (0 Bft)
24.02.2014 08:50 -4,6 C 88 % 1016,7 hPa 0,0 l/m 0,6 km/h (0 Bft) N-NO 22 -6,3 C -3,2 C 0,0 km/h (0 Bft)
24.02.2014 08:55 -4,6 C 87 % 1016,7 hPa 0,0 l/m 0,3 km/h (0 Bft) N-NO 22 -6,4 C -2,1 C 0,0 km/h (0 Bft)
24.02.2014 09:00 -4,6 C 87 % 1016,7 hPa 0,0 l/m 0,0 km/h (0 Bft) N-NO 22 -6,4 C 0,9 C 0,0 km/h (0 Bft)
24.02.2014 09:05 -4,3 C 87 % 1016,7 hPa 0,0 l/m 0,0 km/h (0 Bft) N-NO 22 -6,1 C 2,8 C 0,0 km/h (0 Bft)
24.02.2014 09:10 -3,8 C 88 % 1016,5 hPa 0,0 l/m 0,3 km/h (0 Bft) NO 45 -5,5 C 4,3 C 0,0 km/h (0 Bft)
24.02.2014 09:15 -3,7 C 88 % 1016,5 hPa 0,0 l/m 0,5 km/h (0 Bft) N 360 -5,4 C 4,6 C 0,0 km/h (0 Bft)
24.02.2014 09:20 -3,2 C 88 % 1016,5 hPa 0,0 l/m 0,2 km/h (0 Bft) N-NO 22 -4,9 C 5,2 C 0,0 km/h (0 Bft)
24.02.2014 09:25 -3,2 C 88 % 1016,5 hPa 0,0 l/m 0,0 km/h (0 Bft) NO 45 -4,9 C 5,9 C 0,0 km/h (0 Bft)
24.02.2014 09:30 -2,8 C 88 % 1016,8 hPa 0,0 l/m 0,0 km/h (0 Bft) N-NO 22 -4,5 C 5,9 C 0,0 km/h (0 Bft)
24.02.2014 09:35 -2,0 C 88 % 1016,8 hPa 0,0 l/m 0,0 km/h (0 Bft) N-NO 22 -3,7 C 5,8 C 0,0 km/h (0 Bft)
24.02.2014 09:40 -1,0 C 88 % 1016,8 hPa 0,0 l/m 1,8 km/h (1 Bft) O-NO 67 -2,7 C 4,3 C 4,8 km/h (1 Bft)
24.02.2014 09:45 -0,5 C 87 % 1016,8 hPa 0,0 l/m 3,1 km/h (1 Bft) O-NO 67 -2,4 C 3,2 C 3,5 km/h (1 Bft)
24.02.2014 09:50 -0,1 C 85 % 1016,9 hPa 0,0 l/m 2,3 km/h (1 Bft) NO 45 -2,3 C 2,7 C 0,0 km/h (0 Bft)
24.02.2014 09:55 0,1 C 84 % 1016,9 hPa 0,0 l/m 1,4 km/h (1 Bft) NO 45 -2,3 C 2,2 C 1,9 km/h (1 Bft)
24.02.2014 10:00 0,9 C 82 % 1016,9 hPa 0,0 l/m 0,8 km/h (0 Bft) NO 45 -1,8 C 1,6 C 0,0 km/h (0 Bft)
24.02.2014 10:05 1,4 C 78 % 1016,9 hPa 0,0 l/m 0,8 km/h (0 Bft) NO 45 -2,0 C 1,5 C 0,0 km/h (0 Bft)
24.02.2014 10:10 2,3 C 75 % 1017,0 hPa 0,0 l/m 1,0 km/h (0 Bft) NO 45 -1,7 C 2,0 C 0,0 km/h (0 Bft)
24.02.2014 10:15 2,8 C 71 % 1017,0 hPa 0,0 l/m 0,6 km/h (0 Bft) NO 45 -1,9 C 2,9 C 0,0 km/h (0 Bft)
24.02.2014 10:20 3,0 C 71 % 1017,0 hPa 0,0 l/m 0,6 km/h (0 Bft) O-NO 67 -1,7 C 4,4 C 2,6 km/h (1 Bft)
24.02.2014 10:25 3,3 C 74 % 1017,0 hPa 0,0 l/m 1,6 km/h (1 Bft) O 90 -0,9 C 5,7 C 1,6 km/h (1 Bft)
24.02.2014 10:30 3,6 C 75 % 1017,2 hPa 0,0 l/m 1,9 km/h (1 Bft) NO 45 -0,4 C 7,6 C 2,9 km/h (1 Bft)
24.02.2014 10:35 3,8 C 76 % 1017,2 hPa 0,0 l/m 1,8 km/h (1 Bft) O 90 -0,0 C 8,7 C 2,3 km/h (1 Bft)
24.02.2014 10:40 5,5 C 75 % 1017,2 hPa 0,0 l/m 1,4 km/h (1 Bft) O-NO 67 1,4 C 10,4 C 2,3 km/h (1 Bft)
24.02.2014 10:45 6,5 C 72 % 1017,2 hPa 0,0 l/m 1,4 km/h (1 Bft) O 90 1,8 C 11,0 C 3,1 km/h (1 Bft)
24.02.2014 10:50 7,3 C 61 % 1017,5 hPa 0,0 l/m 1,9 km/h (1 Bft) NO 45 0,3 C 11,7 C 0,0 km/h (0 Bft)
24.02.2014 10:55 7,5 C 43 % 1017,5 hPa 0,0 l/m 1,9 km/h (1 Bft) N 360 -4,3 C 12,0 C 5,0 km/h (1 Bft)
24.02.2014 11:00 7,3 C 65 % 1017,5 hPa 0,0 l/m 1,1 km/h (1 Bft) N-NW 337 1,2 C 12,6 C 0,0 km/h (0 Bft)
24.02.2014 11:05 6,7 C 57 % 1017,5 hPa 0,0 l/m 0,6 km/h (0 Bft) W-NW 292 -1,2 C 13,8 C 0,0 km/h (0 Bft)
24.02.2014 11:10 6,5 C 66 % 1017,6 hPa 0,0 l/m 0,8 km/h (0 Bft) W-SW 247 0,6 C 14,4 C 2,1 km/h (1 Bft)
24.02.2014 11:15 6,4 C 50 % 1017,6 hPa 0,0 l/m 1,4 km/h (1 Bft) N-NO 22 -3,2 C 14,4 C 2,3 km/h (1 Bft)
24.02.2014 11:20 6,2 C 66 % 1017,6 hPa 0,0 l/m 1,3 km/h (1 Bft) W 270 0,3 C 14,7 C 6,3 km/h (2 Bft)
24.02.2014 11:25 7,4 C 57 % 1017,6 hPa 0,0 l/m 1,8 km/h (1 Bft) W 270 -0,5 C 14,5 C 2,4 km/h (1 Bft)
24.02.2014 11:30 9,2 C 65 % 1017,8 hPa 0,0 l/m 2,1 km/h (1 Bft) W-SW 247 3,0 C 14,7 C 3,4 km/h (1 Bft)
24.02.2014 11:35 9,4 C 55 % 1017,8 hPa 0,0 l/m 1,8 km/h (1 Bft) N-NW 337 0,8 C 14,7 C 1,9 km/h (1 Bft)
24.02.2014 11:40 10,1 C 59 % 1017,8 hPa 0,0 l/m 2,9 km/h (1 Bft) W-SW 247 2,5 C 14,4 C 6,6 km/h (2 Bft)
24.02.2014 11:45 9,9 C 41 % 1017,8 hPa 0,0 l/m 2,9 km/h (1 Bft) W-NW 292 -2,7 C 14,6 C 5,8 km/h (2 Bft)
24.02.2014 11:50 10,7 C 51 % 1016,8 hPa 0,0 l/m 2,9 km/h (1 Bft) W 270 1,0 C 14,5 C 7,6 km/h (2 Bft)
24.02.2014 11:55 10,7 C 46 % 1016,8 hPa 0,0 l/m 4,7 km/h (1 Bft) SW 225 -0,4 C 14,2 C 4,7 km/h (1 Bft)
24.02.2014 12:00 11,8 C 47 % 1016,8 hPa 0,0 l/m 5,6 km/h (1 Bft) W-SW 247 0,9 C 13,9 C 9,0 km/h (2 Bft)
24.02.2014 12:05 12,1 C 45 % 1016,8 hPa 0,0 l/m 5,1 km/h (1 Bft) S-SW 202 0,5 C 13,8 C 5,1 km/h (1 Bft)
24.02.2014 12:10 11,8 C 34 % 1018,0 hPa 0,0 l/m 5,5 km/h (1 Bft) W-NW 292 -3,5 C 13,7 C 6,4 km/h (2 Bft)
24.02.2014 12:15 10,6 C 27 % 1018,0 hPa 0,0 l/m 4,8 km/h (1 Bft) N 360 -7,6 C 13,8 C 4,8 km/h (1 Bft)
24.02.2014 12:20 10,2 C 27 % 1018,0 hPa 0,0 l/m 4,0 km/h (1 Bft) W-NW 292 -7,9 C 14,2 C 5,1 km/h (1 Bft)
24.02.2014 12:23 11,1 C 32 % 1018,0 hPa 0,0 l/m 3,1 km/h (1 Bft) S 180 -5,0 C 14,7 C 2,1 km/h (1 Bft)
24.02.2014 12:25 11,1 C 32 % 1018,0 hPa 0,0 l/m 3,1 km/h (1 Bft) S 180 -5,0 C 14,7 C 2,1 km/h (1 Bft)
24.02.2014 12:30 11,5 C 30 % 1018,1 hPa 0,0 l/m 4,0 km/h (1 Bft) S-SO 157 -5,5 C 14,8 C 9,7 km/h (2 Bft)
24.02.2014 12:35 11,4 C 27 % 1018,1 hPa 0,0 l/m 5,6 km/h (1 Bft) S-SO 157 -6,9 C 14,3 C 7,6 km/h (2 Bft)
24.02.2014 12:40 11,2 C 27 % 1018,1 hPa 0,0 l/m 5,1 km/h (1 Bft) SO 135 -7,1 C 14,3 C 3,7 km/h (1 Bft)
24.02.2014 12:45 11,1 C 30 % 1018,1 hPa 0,0 l/m 3,5 km/h (1 Bft) S-SO 157 -5,8 C 15,0 C 6,0 km/h (2 Bft)
24.02.2014 12:50 11,7 C 30 % 1017,8 hPa 0,0 l/m 3,9 km/h (1 Bft) S 180 -5,3 C 15,0 C 2,9 km/h (1 Bft)
24.02.2014 12:55 11,8 C 30 % 1017,8 hPa 0,0 l/m 4,3 km/h (1 Bft) S-SW 202 -5,2 C 15,3 C 3,1 km/h (1 Bft)
24.02.2014 13:00 11,7 C 28 % 1017,8 hPa 0,0 l/m 3,9 km/h (1 Bft) S 180 -6,2 C 15,7 C 6,8 km/h (2 Bft)
24.02.2014 13:05 12,0 C 29 % 1017,8 hPa 0,0 l/m 3,5 km/h (1 Bft) W-SW 247 -5,5 C 15,5 C 4,2 km/h (1 Bft)
24.02.2014 13:10 12,0 C 30 % 1017,8 hPa 0,0 l/m 2,9 km/h (1 Bft) W-SW 247 -5,0 C 16,0 C 2,1 km/h (1 Bft)
24.02.2014 13:15 12,4 C 28 % 1017,8 hPa 0,0 l/m 2,9 km/h (1 Bft) S 180 -5,6 C 16,2 C 6,1 km/h (2 Bft)
24.02.2014 13:20 12,2 C 27 % 1017,8 hPa 0,0 l/m 3,7 km/h (1 Bft) S-SO 157 -6,2 C 16,1 C 7,2 km/h (2 Bft)
24.02.2014 13:25 12,3 C 28 % 1017,8 hPa 0,0 l/m 4,5 km/h (1 Bft) W-SW 247 -5,7 C 15,9 C 6,1 km/h (2 Bft)
24.02.2014 13:30 12,0 C 25 % 1017,6 hPa 0,0 l/m 5,8 km/h (2 Bft) S-SO 157 -7,4 C 15,4 C 10,6 km/h (2 Bft)
24.02.2014 13:35 11,9 C 27 % 1017,6 hPa 0,0 l/m 6,3 km/h (2 Bft) S-SO 157 -6,5 C 14,8 C 6,3 km/h (2 Bft)
24.02.2014 13:40 12,6 C 30 % 1017,6 hPa 0,0 l/m 5,3 km/h (1 Bft) W-SW 247 -4,5 C 15,0 C 2,4 km/h (1 Bft)
24.02.2014 13:45 12,2 C 28 % 1017,6 hPa 0,0 l/m 3,5 km/h (1 Bft) W-NW 292 -5,8 C 15,6 C 4,0 km/h (1 Bft)
24.02.2014 13:50 12,3 C 28 % 1017,7 hPa 0,0 l/m 3,1 km/h (1 Bft) S 180 -5,7 C 16,0 C 3,1 km/h (1 Bft)
24.02.2014 13:55 12,3 C 24 % 1017,7 hPa 0,0 l/m 3,9 km/h (1 Bft) W-NW 292 -7,7 C 16,1 C 7,6 km/h (2 Bft)
24.02.2014 14:00 12,3 C 25 % 1017,7 hPa 0,0 l/m 4,8 km/h (1 Bft) S-SW 202 -7,1 C 15,7 C 6,6 km/h (2 Bft)
24.02.2014 14:05 12,4 C 25 % 1017,7 hPa 0,0 l/m 5,6 km/h (1 Bft) W-SW 247 -7,1 C 15,5 C 10,1 km/h (2 Bft)
24.02.2014 14:10 12,5 C 25 % 1017,6 hPa 0,0 l/m 5,5 km/h (1 Bft) W 270 -7,0 C 15,3 C 5,5 km/h (1 Bft)
24.02.2014 14:15 12,6 C 25 % 1017,6 hPa 0,0 l/m 4,8 km/h (1 Bft) S 180 -6,9 C 15,5 C 2,7 km/h (1 Bft)
24.02.2014 14:20 13,0 C 26 % 1017,6 hPa 0,0 l/m 3,4 km/h (1 Bft) S-SO 157 -6,0 C 15,9 C 2,4 km/h (1 Bft)
24.02.2014 14:25 12,8 C 26 % 1017,6 hPa 0,0 l/m 2,3 km/h (1 Bft) W 270 -6,2 C 16,8 C 2,3 km/h (1 Bft)
24.02.2014 14:30 12,0 C 23 % 1017,6 hPa 0,0 l/m 3,4 km/h (1 Bft) S-SW 202 -8,5 C 16,5 C 5,8 km/h (2 Bft)
24.02.2014 14:35 12,5 C 23 % 1017,6 hPa 0,0 l/m 4,5 km/h (1 Bft) W-NW 292 -8,0 C 16,2 C 6,8 km/h (2 Bft)
24.02.2014 14:40 12,9 C 25 % 1017,6 hPa 0,0 l/m 4,3 km/h (1 Bft) W-SW 247 -6,6 C 16,0 C 7,2 km/h (2 Bft)
24.02.2014 14:45 12,5 C 23 % 1017,6 hPa 0,0 l/m 4,5 km/h (1 Bft) W 270 -8,0 C 16,1 C 7,4 km/h (2 Bft)
24.02.2014 14:50 11,9 C 22 % 1017,2 hPa 0,0 l/m 3,9 km/h (1 Bft) N 360 -9,1 C 16,3 C 3,7 km/h (1 Bft)
24.02.2014 14:55 12,3 C 23 % 1017,2 hPa 0,0 l/m 3,5 km/h (1 Bft) W-NW 292 -8,2 C 16,4 C 6,6 km/h (2 Bft)
24.02.2014 15:00 12,5 C 24 % 1017,2 hPa 0,0 l/m 3,9 km/h (1 Bft) W-NW 292 -7,5 C 15,9 C 7,1 km/h (2 Bft)
24.02.2014 15:05 12,6 C 24 % 1017,2 hPa 0,0 l/m 3,9 km/h (1 Bft) W-SW 247 -7,4 C 16,1 C 6,9 km/h (2 Bft)
24.02.2014 15:10 12,5 C 24 % 1016,9 hPa 0,0 l/m 3,2 km/h (1 Bft) S 180 -7,5 C 16,4 C 3,1 km/h (1 Bft)
24.02.2014 15:15 12,3 C 25 % 1016,9 hPa 0,0 l/m 2,4 km/h (1 Bft) W 270 -7,1 C 16,6 C 4,2 km/h (1 Bft)
24.02.2014 15:20 12,1 C 24 % 1016,9 hPa 0,0 l/m 2,7 km/h (1 Bft) SW 225 -7,8 C 15,4 C 2,1 km/h (1 Bft)
24.02.2014 15:25 12,5 C 25 % 1016,9 hPa 0,0 l/m 2,6 km/h (1 Bft) N 360 -7,0 C 14,7 C 3,4 km/h (1 Bft)
24.02.2014 15:30 12,1 C 23 % 1016,8 hPa 0,0 l/m 1,6 km/h (1 Bft) S-SW 202 -8,4 C 13,9 C 7,2 km/h (2 Bft)
24.02.2014 15:35 12,2 C 23 % 1016,8 hPa 0,0 l/m 2,6 km/h (1 Bft) W 270 -8,3 C 13,7 C 6,9 km/h (2 Bft)
24.02.2014 15:40 11,8 C 22 % 1016,8 hPa 0,0 l/m 4,2 km/h (1 Bft) W-NW 292 -9,2 C 14,7 C 3,2 km/h (1 Bft)
24.02.2014 15:45 11,2 C 24 % 1016,8 hPa 0,0 l/m 3,7 km/h (1 Bft) N-NO 22 -8,6 C 15,2 C 4,2 km/h (1 Bft)
24.02.2014 15:50 10,7 C 24 % 1016,6 hPa 0,0 l/m 3,2 km/h (1 Bft) W-NW 292 -9,0 C 15,4 C 1,6 km/h (1 Bft)
24.02.2014 15:55 10,7 C 25 % 1016,6 hPa 0,0 l/m 3,7 km/h (1 Bft) W-SW 247 -8,5 C 15,5 C 1,8 km/h (1 Bft)
24.02.2014 16:00 10,3 C 26 % 1016,6 hPa 0,0 l/m 2,9 km/h (1 Bft) W-NW 292 -8,3 C 15,8 C 4,0 km/h (1 Bft)
24.02.2014 16:05 9,8 C 26 % 1016,6 hPa 0,0 l/m 1,9 km/h (1 Bft) W-NW 292 -8,8 C 16,0 C 0,0 km/h (0 Bft)
24.02.2014 16:10 9,4 C 26 % 1016,7 hPa 0,0 l/m 2,4 km/h (1 Bft) S-SW 202 -9,1 C 16,1 C 3,7 km/h (1 Bft)
24.02.2014 16:15 9,0 C 27 % 1016,7 hPa 0,0 l/m 3,1 km/h (1 Bft) W 270 -9,0 C 16,0 C 1,9 km/h (1 Bft)
24.02.2014 16:20 8,8 C 28 % 1016,7 hPa 0,0 l/m 2,7 km/h (1 Bft) W-NW 292 -8,7 C 16,1 C 3,1 km/h (1 Bft)
24.02.2014 16:25 8,3 C 29 % 1016,7 hPa 0,0 l/m 1,9 km/h (1 Bft) SW 225 -8,7 C 15,9 C 0,0 km/h (0 Bft)
24.02.2014 16:30 7,7 C 30 % 1016,6 hPa 0,0 l/m 1,8 km/h (1 Bft) W 270 -8,8 C 16,3 C 3,5 km/h (1 Bft)
24.02.2014 16:35 7,8 C 31 % 1016,6 hPa 0,0 l/m 2,1 km/h (1 Bft) W 270 -8,2 C 16,0 C 6,4 km/h (2 Bft)
24.02.2014 16:40 7,8 C 31 % 1016,6 hPa 0,0 l/m 3,1 km/h (1 Bft) W-SW 247 -8,2 C 15,5 C 3,4 km/h (1 Bft)
24.02.2014 16:45 7,5 C 31 % 1016,6 hPa 0,0 l/m 3,2 km/h (1 Bft) W-NW 292 -8,5 C 14,7 C 1,9 km/h (1 Bft)
24.02.2014 16:50 7,3 C 32 % 1016,9 hPa 0,0 l/m 2,1 km/h (1 Bft) W-SW 247 -8,3 C 12,9 C 0,0 km/h (0 Bft)
24.02.2014 16:55 7,2 C 32 % 1016,9 hPa 0,0 l/m 1,4 km/h (1 Bft) NO 45 -8,4 C 11,8 C 2,3 km/h (1 Bft)
24.02.2014 17:00 7,0 C 33 % 1016,9 hPa 0,0 l/m 1,0 km/h (0 Bft) S-SO 157 -8,1 C 10,0 C 0,0 km/h (0 Bft)
24.02.2014 17:05 6,7 C 34 % 1016,9 hPa 0,0 l/m 0,8 km/h (0 Bft) S-SO 157 -8,0 C 9,2 C 0,0 km/h (0 Bft)
24.02.2014 17:10 6,9 C 34 % 1017,7 hPa 0,0 l/m 1,9 km/h (1 Bft) O-NO 67 -7,9 C 8,2 C 3,7 km/h (1 Bft)
24.02.2014 17:15 7,0 C 34 % 1017,7 hPa 0,0 l/m 3,4 km/h (1 Bft) O-NO 67 -7,8 C 7,8 C 3,7 km/h (1 Bft)
24.02.2014 17:20 7,0 C 36 % 1017,7 hPa 0,0 l/m 3,9 km/h (1 Bft) O 90 -7,0 C 7,6 C 4,8 km/h (1 Bft)
24.02.2014 17:23 6,6 C 38 % 1017,7 hPa 0,0 l/m 3,9 km/h (1 Bft) O-NO 67 -6,7 C 7,9 C 4,8 km/h (1 Bft)
24.02.2014 17:25 6,6 C 38 % 1017,7 hPa 0,0 l/m 3,9 km/h (1 Bft) O-NO 67 -6,7 C 7,9 C 4,8 km/h (1 Bft)
24.02.2014 17:30 6,2 C 40 % 1016,9 hPa 0,0 l/m 4,0 km/h (1 Bft) NO 45 -6,4 C 8,1 C 5,6 km/h (1 Bft)
24.02.2014 17:35 6,1 C 41 % 1016,9 hPa 0,0 l/m 4,5 km/h (1 Bft) NO 45 -6,1 C 7,2 C 5,3 km/h (1 Bft)
24.02.2014 17:40 6,0 C 42 % 1016,9 hPa 0,0 l/m 5,0 km/h (1 Bft) O-NO 67 -5,9 C 6,1 C 6,1 km/h (2 Bft)
24.02.2014 17:45 5,9 C 44 % 1016,9 hPa 0,0 l/m 4,8 km/h (1 Bft) O-NO 67 -5,4 C 5,6 C 4,8 km/h (1 Bft)
24.02.2014 17:50 5,5 C 45 % 1017,0 hPa 0,0 l/m 4,5 km/h (1 Bft) NO 45 -5,5 C 5,1 C 5,0 km/h (1 Bft)
24.02.2014 17:55 5,4 C 45 % 1017,0 hPa 0,0 l/m 4,3 km/h (1 Bft) O-NO 67 -5,6 C 4,8 C 4,8 km/h (1 Bft)
24.02.2014 18:00 5,2 C 46 % 1017,0 hPa 0,0 l/m 3,9 km/h (1 Bft) O 90 -5,5 C 4,6 C 1,8 km/h (1 Bft)
24.02.2014 18:05 4,6 C 48 % 1017,0 hPa 0,0 l/m 2,4 km/h (1 Bft) O 90 -5,4 C 4,2 C 0,0 km/h (0 Bft)
24.02.2014 18:10 3,0 C 51 % 1016,9 hPa 0,0 l/m 0,2 km/h (0 Bft) O 90 -6,1 C 3,2 C 0,0 km/h (0 Bft)
24.02.2014 18:15 3,0 C 53 % 1016,9 hPa 0,0 l/m 0,0 km/h (0 Bft) NO 45 -5,6 C 2,7 C 0,0 km/h (0 Bft)
24.02.2014 18:20 3,2 C 54 % 1016,9 hPa 0,0 l/m 1,3 km/h (1 Bft) NO 45 -5,2 C 2,2 C 5,0 km/h (1 Bft)
24.02.2014 18:25 3,6 C 54 % 1016,9 hPa 0,0 l/m 2,9 km/h (1 Bft) O 90 -4,8 C 1,9 C 4,2 km/h (1 Bft)
24.02.2014 18:30 3,5 C 53 % 1017,1 hPa 0,0 l/m 3,5 km/h (1 Bft) O 90 -5,2 C 1,1 C 1,8 km/h (1 Bft)
24.02.2014 18:35 3,3 C 54 % 1017,1 hPa 0,0 l/m 1,9 km/h (1 Bft) O 90 -5,1 C 1,4 C 0,0 km/h (0 Bft)
24.02.2014 18:40 2,3 C 57 % 1017,1 hPa 0,0 l/m 0,3 km/h (0 Bft) O 90 -5,3 C 0,8 C 2,3 km/h (1 Bft)
24.02.2014 18:45 2,5 C 57 % 1017,1 hPa 0,0 l/m 1,3 km/h (1 Bft) O 90 -5,1 C 0,7 C 4,8 km/h (1 Bft)
24.02.2014 18:50 2,5 C 57 % 1017,2 hPa 0,0 l/m 3,7 km/h (1 Bft) O 90 -5,1 C -0,1 C 3,7 km/h (1 Bft)
24.02.2014 18:55 2,3 C 57 % 1017,2 hPa 0,0 l/m 4,2 km/h (1 Bft) O 90 -5,3 C -0,2 C 4,8 km/h (1 Bft)
24.02.2014 19:00 2,2 C 56 % 1017,2 hPa 0,0 l/m 3,2 km/h (1 Bft) O 90 -5,6 C 0,3 C 2,7 km/h (1 Bft)
24.02.2014 19:05 2,1 C 56 % 1017,2 hPa 0,0 l/m 2,7 km/h (1 Bft) NO 45 -5,7 C 0,5 C 3,7 km/h (1 Bft)
24.02.2014 19:10 1,9 C 57 % 1017,4 hPa 0,0 l/m 2,1 km/h (1 Bft) O-NO 67 -5,7 C 0,5 C 1,9 km/h (1 Bft)
24.02.2014 19:15 1,8 C 57 % 1017,4 hPa 0,0 l/m 1,8 km/h (1 Bft) O 90 -5,8 C 0,4 C 3,1 km/h (1 Bft)
24.02.2014 19:20 1,2 C 57 % 1017,4 hPa 0,0 l/m 0,6 km/h (0 Bft) NO 45 -6,4 C 0,2 C 0,0 km/h (0 Bft)
24.02.2014 19:25 0,7 C 57 % 1017,4 hPa 0,0 l/m 0,2 km/h (0 Bft) O-SO 112 -6,8 C 0,1 C 0,0 km/h (0 Bft)
24.02.2014 19:30 0,2 C 57 % 1017,3 hPa 0,0 l/m 0,2 km/h (0 Bft) S-SO 157 -7,3 C -0,2 C 0,0 km/h (0 Bft)
24.02.2014 19:35 0,0 C 58 % 1017,3 hPa 0,0 l/m 0,3 km/h (0 Bft) W-SW 247 -7,3 C -0,2 C 0,0 km/h (0 Bft)
24.02.2014 19:40 -0,2 C 58 % 1017,3 hPa 0,0 l/m 0,3 km/h (0 Bft) W-SW 247 -7,4 C -0,7 C 0,0 km/h (0 Bft)
24.02.2014 19:45 -0,7 C 58 % 1017,3 hPa 0,0 l/m 0,0 km/h (0 Bft) W-SW 247 -7,9 C -0,9 C 0,0 km/h (0 Bft)
24.02.2014 19:50 -1,1 C 59 % 1017,2 hPa 0,0 l/m 0,0 km/h (0 Bft) W-SW 247 -8,1 C -1,4 C 0,0 km/h (0 Bft)
24.02.2014 19:55 -0,9 C 63 % 1017,2 hPa 0,0 l/m 0,0 km/h (0 Bft) W-NW 292 -7,0 C -1,7 C 0,0 km/h (0 Bft)
24.02.2014 20:00 -1,1 C 63 % 1017,2 hPa 0,0 l/m 0,0 km/h (0 Bft) N 360 -7,2 C -1,8 C 0,0 km/h (0 Bft)
24.02.2014 20:05 -1,3 C 63 % 1017,2 hPa 0,0 l/m 0,0 km/h (0 Bft) NO 45 -7,4 C -1,9 C 0,0 km/h (0 Bft)
24.02.2014 20:10 -1,3 C 63 % 1016,9 hPa 0,0 l/m 0,2 km/h (0 Bft) O-NO 67 -7,4 C -1,9 C 0,0 km/h (0 Bft)
24.02.2014 20:15 -1,3 C 63 % 1016,9 hPa 0,0 l/m 0,6 km/h (0 Bft) N 360 -7,4 C -1,5 C 2,9 km/h (1 Bft)
24.02.2014 20:20 -0,9 C 64 % 1016,9 hPa 0,0 l/m 1,0 km/h (0 Bft) N 360 -6,8 C -1,0 C 0,0 km/h (0 Bft)
24.02.2014 20:25 -0,9 C 64 % 1016,9 hPa 0,0 l/m 0,6 km/h (0 Bft) O-NO 67 -6,8 C -0,8 C 0,0 km/h (0 Bft)
24.02.2014 20:30 -1,0 C 63 % 1016,7 hPa 0,0 l/m 0,2 km/h (0 Bft) W 270 -7,1 C -0,9 C 0,0 km/h (0 Bft)
24.02.2014 20:35 -1,1 C 63 % 1016,7 hPa 0,0 l/m 0,0 km/h (0 Bft) N-NO 22 -7,2 C -0,7 C 0,0 km/h (0 Bft)
24.02.2014 20:40 -0,8 C 64 % 1016,7 hPa 0,0 l/m 0,5 km/h (0 Bft) O 90 -6,7 C -0,6 C 0,0 km/h (0 Bft)
24.02.2014 20:45 -0,8 C 64 % 1016,7 hPa 0,0 l/m 0,3 km/h (0 Bft) N 360 -6,7 C -0,6 C 0,0 km/h (0 Bft)
24.02.2014 20:50 -0,7 C 65 % 1016,5 hPa 0,0 l/m 0,5 km/h (0 Bft) N-NO 22 -6,4 C -0,6 C 1,9 km/h (1 Bft)
24.02.2014 20:55 -0,9 C 64 % 1016,5 hPa 0,0 l/m 0,6 km/h (0 Bft) W-NW 292 -6,8 C -0,4 C 2,4 km/h (1 Bft)
24.02.2014 21:00 -0,6 C 65 % 1016,5 hPa 0,0 l/m 0,5 km/h (0 Bft) W-NW 292 -6,3 C -0,4 C 0,0 km/h (0 Bft)
24.02.2014 21:05 -0,6 C 64 % 1016,5 hPa 0,0 l/m 0,2 km/h (0 Bft) W-NW 292 -6,5 C -0,6 C 0,0 km/h (0 Bft)
24.02.2014 21:10 -0,8 C 64 % 1016,3 hPa 0,0 l/m 0,2 km/h (0 Bft) W-NW 292 -6,7 C -0,8 C 0,0 km/h (0 Bft)
24.02.2014 21:15 -0,9 C 63 % 1016,3 hPa 0,0 l/m 0,3 km/h (0 Bft) W 270 -7,0 C -0,9 C 0,0 km/h (0 Bft)
24.02.2014 21:20 -0,8 C 63 % 1016,3 hPa 0,0 l/m 0,2 km/h (0 Bft) W 270 -6,9 C -1,2 C 0,0 km/h (0 Bft)
24.02.2014 21:25 -0,3 C 64 % 1016,3 hPa 0,0 l/m 0,0 km/h (0 Bft) W 270 -6,3 C -1,3 C 0,0 km/h (0 Bft)
24.02.2014 21:30 -1,3 C 62 % 1016,4 hPa 0,0 l/m 0,0 km/h (0 Bft) W 270 -7,6 C -1,6 C 0,0 km/h (0 Bft)
24.02.2014 21:35 -1,3 C 63 % 1016,4 hPa 0,0 l/m 0,2 km/h (0 Bft) N-NO 22 -7,4 C -1,9 C 3,4 km/h (1 Bft)
24.02.2014 21:40 -1,5 C 64 % 1016,4 hPa 0,0 l/m 0,5 km/h (0 Bft) N-NO 22 -7,4 C -1,9 C 3,1 km/h (1 Bft)
24.02.2014 21:45 -1,6 C 64 % 1016,4 hPa 0,0 l/m 0,6 km/h (0 Bft) N-NO 22 -7,5 C -1,7 C 0,0 km/h (0 Bft)
24.02.2014 21:50 -1,4 C 65 % 1016,2 hPa 0,0 l/m 0,5 km/h (0 Bft) N-NO 22 -7,1 C -1,5 C 0,0 km/h (0 Bft)
24.02.2014 21:55 -1,3 C 65 % 1016,2 hPa 0,0 l/m 0,2 km/h (0 Bft) NO 45 -7,0 C -1,6 C 0,0 km/h (0 Bft)
24.02.2014 22:00 -0,9 C 65 % 1016,2 hPa 0,0 l/m 0,0 km/h (0 Bft) NO 45 -6,6 C -1,6 C 0,0 km/h (0 Bft)
24.02.2014 22:05 -0,8 C 65 % 1016,2 hPa 0,0 l/m 0,3 km/h (0 Bft) W-NW 292 -6,5 C -1,5 C 2,6 km/h (1 Bft)
24.02.2014 22:10 -1,1 C 65 % 1016,1 hPa 0,0 l/m 0,6 km/h (0 Bft) NO 45 -6,8 C -1,3 C 0,0 km/h (0 Bft)
24.02.2014 22:15 -1,1 C 65 % 1016,1 hPa 0,0 l/m 0,5 km/h (0 Bft) N-NW 337 -6,8 C -1,3 C 0,0 km/h (0 Bft)
24.02.2014 22:20 -1,5 C 65 % 1016,1 hPa 0,0 l/m 0,0 km/h (0 Bft) N 360 -7,2 C -1,2 C 0,0 km/h (0 Bft)
24.02.2014 22:25 -1,3 C 65 % 1016,1 hPa 0,0 l/m 0,0 km/h (0 Bft) NW 315 -7,0 C -1,2 C 0,0 km/h (0 Bft)
24.02.2014 22:30 -0,9 C 66 % 1016,1 hPa 0,0 l/m 0,2 km/h (0 Bft) NW 315 -6,4 C -1,2 C 0,0 km/h (0 Bft)
24.02.2014 22:35 -1,2 C 65 % 1016,1 hPa 0,0 l/m 0,5 km/h (0 Bft) W-SW 247 -6,9 C -1,3 C 3,2 km/h (1 Bft)
24.02.2014 22:40 -1,4 C 65 % 1016,1 hPa 0,0 l/m 0,5 km/h (0 Bft) W 270 -7,1 C -1,3 C 0,0 km/h (0 Bft)
24.02.2014 22:45 -1,8 C 65 % 1016,1 hPa 0,0 l/m 0,3 km/h (0 Bft) W-SW 247 -7,5 C -1,4 C 0,0 km/h (0 Bft)
24.02.2014 22:50 -2,1 C 65 % 1016,1 hPa 0,0 l/m 0,3 km/h (0 Bft) W 270 -7,8 C -1,9 C 0,0 km/h (0 Bft)
24.02.2014 22:55 -2,4 C 65 % 1016,1 hPa 0,0 l/m 0,3 km/h (0 Bft) W 270 -8,1 C -2,2 C 0,0 km/h (0 Bft)
24.02.2014 23:00 -2,6 C 66 % 1016,1 hPa 0,0 l/m 0,0 km/h (0 Bft) W 270 -8,1 C -2,7 C 0,0 km/h (0 Bft)
24.02.2014 23:05 -2,6 C 66 % 1016,1 hPa 0,0 l/m 0,0 km/h (0 Bft) W 270 -8,1 C -3,0 C 0,0 km/h (0 Bft)
24.02.2014 23:10 -2,7 C 67 % 1016,1 hPa 0,0 l/m 0,0 km/h (0 Bft) W 270 -8,0 C -3,1 C 0,0 km/h (0 Bft)
24.02.2014 23:15 -2,7 C 67 % 1016,1 hPa 0,0 l/m 0,0 km/h (0 Bft) W 270 -8,0 C -3,2 C 0,0 km/h (0 Bft)
24.02.2014 23:20 -2,7 C 68 % 1016,1 hPa 0,0 l/m 0,2 km/h (0 Bft) N 360 -7,8 C -3,3 C 0,0 km/h (0 Bft)
24.02.2014 23:25 -2,9 C 68 % 1016,1 hPa 0,0 l/m 0,2 km/h (0 Bft) NW 315 -8,0 C -3,5 C 0,0 km/h (0 Bft)
24.02.2014 23:30 -3,1 C 69 % 1016,2 hPa 0,0 l/m 0,3 km/h (0 Bft) NO 45 -8,0 C -3,6 C 3,1 km/h (1 Bft)
24.02.2014 23:35 -3,1 C 68 % 1016,2 hPa 0,0 l/m 0,8 km/h (0 Bft) W-NW 292 -8,1 C -3,4 C 0,0 km/h (0 Bft)
24.02.2014 23:40 -3,1 C 69 % 1016,2 hPa 0,0 l/m 0,8 km/h (0 Bft) N-NO 22 -8,0 C -3,4 C 0,0 km/h (0 Bft)
24.02.2014 23:45 -2,9 C 69 % 1016,2 hPa 0,0 l/m 0,5 km/h (0 Bft) O-NO 67 -7,8 C -3,2 C 0,0 km/h (0 Bft)
24.02.2014 23:50 -2,8 C 69 % 1016,1 hPa 0,0 l/m 0,3 km/h (0 Bft) NW 315 -7,7 C -2,9 C 0,0 km/h (0 Bft)
24.02.2014 23:55 -2,8 C 69 % 1016,1 hPa 0,0 l/m 0,3 km/h (0 Bft) W-NW 292 -7,7 C -2,7 C 0,0 km/h (0 Bft)
_ Min-Zeit 06:45 15:40 23:55 - 23:15 - - 06:45 06:50 23:55
Minimum _ -7,4 C 22 % 1016,1 hPa - 0,0 km/h (0 Bft) - - -9,3 C -7,9 C 0,0 km/h (0 Bft)
_ Max-Zeit 14:20 09:40 00:05 23:55 13:35 - - 11:30 14:25 13:30
Maximum _ 13,0 C 88 % 1019,5 hPa 0,0 l/m 6,3 km/h
S-SO (2 Bft)
- - 3,0 C 16,8 C 10,6 km/h
S-SO (2 Bft)
Durchschnitt _ 0,7 C 64 % 1017,1 hPa #0,0 l/m 1,4 km/h (1 Bft) O - -6,6 C 1,9 C 1,8 km/h (1 Bft)